Time;durP1;ratioP1;P1;durP2;ratioP2;P2;SDS_P1;SDS_P2;PMS_P1;PMS_P2;Temp;Humidity;BMP_temperature;BMP_pressure;BME280_temperature;BME280_humidity;BME280_pressure;Samples;Min_cycle;Max_cycle;Signal;HPM_P1;HPM_P2
2023/05/07 00:01:26;;;;;;;25.55;15.35;;;13.00;99.90;;;;;;4974404;28;20034;-71
2023/05/07 00:03:51;;;;;;;24.85;14.38;;;13.10;99.90;;;;;;4974536;28;20034;-71
2023/05/07 00:06:17;;;;;;;21.17;14.18;;;13.10;99.90;;;;;;4974458;28;20449;-71
2023/05/07 00:08:43;;;;;;;23.40;14.13;;;13.10;99.90;;;;;;4974620;28;20034;-71
2023/05/07 00:11:08;;;;;;;23.25;13.77;;;13.00;99.90;;;;;;4974591;28;20026;-70
2023/05/07 00:13:35;;;;;;;23.40;14.20;;;13.10;99.90;;;;;;4974413;28;20033;-71
2023/05/07 00:16:02;;;;;;;22.50;14.18;;;13.00;99.90;;;;;;4974108;28;20031;-71
2023/05/07 00:18:28;;;;;;;24.95;14.43;;;12.90;99.90;;;;;;4974055;28;20426;-69
2023/05/07 00:20:54;;;;;;;24.60;14.15;;;13.00;99.90;;;;;;4974175;28;20027;-71
2023/05/07 00:23:19;;;;;;;23.52;14.82;;;13.00;99.90;;;;;;4974248;28;20062;-70
2023/05/07 00:25:45;;;;;;;26.13;14.43;;;13.00;99.90;;;;;;4974353;28;20062;-71
2023/05/07 00:28:13;;;;;;;26.65;14.80;;;12.90;99.90;;;;;;4972965;28;20027;-74
2023/05/07 00:30:39;;;;;;;;;;;12.90;99.90;;;;;;4987611;28;20102;-70
2023/05/07 00:33:04;;;;;;;21.52;13.43;;;12.90;99.90;;;;;;4992464;28;19997;-71
2023/05/07 00:35:30;;;;;;;24.48;13.88;;;12.90;99.90;;;;;;4992326;28;20357;-71
2023/05/07 00:37:55;;;;;;;30.35;16.05;;;12.80;99.90;;;;;;4993451;28;20026;-71
2023/05/07 00:40:21;;;;;;;23.63;13.73;;;12.80;99.90;;;;;;4993376;28;20026;-71
2023/05/07 00:42:48;;;;;;;26.10;16.35;;;12.70;99.90;;;;;;4993224;28;20069;-72
2023/05/07 00:45:14;;;;;;;31.00;17.30;;;12.70;99.90;;;;;;4991936;28;20034;-71
2023/05/07 00:47:41;;;;;;;27.45;15.35;;;12.60;99.90;;;;;;4992960;28;20369;-71
2023/05/07 00:50:07;;;;;;;29.98;16.23;;;12.50;99.90;;;;;;4976335;28;20026;-72
2023/05/07 00:52:33;;;;;;;31.25;16.75;;;12.40;99.90;;;;;;4992628;28;20177;-71
2023/05/07 00:55:04;;;;;;;29.67;15.48;;;12.40;99.90;;;;;;4992995;28;20473;-72
2023/05/07 00:57:39;;;;;;;30.17;16.73;;;12.50;99.90;;;;;;4992533;28;20038;-71
2023/05/07 01:00:08;;;;;;;26.63;15.88;;;12.40;99.90;;;;;;4992919;28;20049;-72
2023/05/07 01:02:34;;;;;;;31.20;17.02;;;12.40;99.90;;;;;;4992712;28;20034;-71
2023/05/07 01:05:01;;;;;;;30.77;15.68;;;12.40;99.90;;;;;;4993189;28;20026;-71
2023/05/07 01:07:28;;;;;;;29.33;16.77;;;12.40;99.90;;;;;;4975655;28;20042;-69
2023/05/07 01:09:54;;;;;;;27.58;15.45;;;12.40;99.90;;;;;;4992431;28;20037;-71
2023/05/07 01:12:20;;;;;;;33.00;16.35;;;12.50;99.90;;;;;;4992370;28;20040;-71
2023/05/07 01:14:46;;;;;;;28.52;16.23;;;12.50;99.90;;;;;;4992652;28;20034;-71
2023/05/07 01:17:11;;;;;;;30.95;17.05;;;12.50;99.90;;;;;;4992753;28;20037;-71
2023/05/07 01:19:37;;;;;;;27.02;16.52;;;12.50;99.90;;;;;;5012063;28;20030;-72
2023/05/07 01:22:08;;;;;;;34.15;17.48;;;12.50;99.90;;;;;;5011903;28;20030;-71
2023/05/07 01:24:36;;;;;;;31.98;17.02;;;12.40;99.90;;;;;;5010868;28;20033;-72
2023/05/07 01:27:01;;;;;;;27.40;16.80;;;12.50;99.90;;;;;;5011814;28;20026;-71
2023/05/07 01:29:28;;;;;;;29.20;16.77;;;12.50;99.90;;;;;;5011500;28;20502;-72
2023/05/07 01:31:56;;;;;;;28.67;16.23;;;12.60;99.90;;;;;;5011216;28;20026;-71
2023/05/07 01:34:24;;;;;;;31.70;17.70;;;12.60;99.90;;;;;;5011757;28;20365;-72
2023/05/07 01:36:50;;;;;;;28.42;16.88;;;12.50;99.90;;;;;;5028036;28;20044;-70
2023/05/07 01:39:16;;;;;;;32.53;17.75;;;12.50;99.90;;;;;;5031404;28;20033;-70
2023/05/07 01:41:43;;;;;;;29.25;16.55;;;12.40;99.90;;;;;;5013734;28;20041;-71
2023/05/07 01:44:12;;;;;;;32.70;18.23;;;12.40;99.90;;;;;;5031593;28;20028;-72
2023/05/07 01:46:38;;;;;;;32.10;17.30;;;12.40;99.90;;;;;;5031099;28;20029;-71
2023/05/07 01:49:04;;;;;;;32.45;17.73;;;12.40;99.90;;;;;;5031204;28;20033;-70
2023/05/07 01:51:30;;;;;;;29.80;16.65;;;12.40;99.90;;;;;;5031366;28;20030;-71
2023/05/07 01:53:55;;;;;;;30.35;18.08;;;12.40;99.90;;;;;;5031111;28;20033;-71
2023/05/07 01:56:21;;;;;;;31.48;17.48;;;12.30;99.90;;;;;;5030898;28;20033;-72
2023/05/07 01:58:47;;;;;;;27.55;16.70;;;12.30;99.90;;;;;;5031491;28;20024;-71
2023/05/07 02:01:14;;;;;;;27.48;16.33;;;12.30;99.90;;;;;;5031202;28;20434;-71
2023/05/07 02:03:39;;;;;;;29.25;16.25;;;12.40;99.90;;;;;;5031237;28;20117;-71
2023/05/07 02:06:05;;;;;;;27.42;15.98;;;12.30;99.90;;;;;;5031192;28;20117;-70
2023/05/07 02:08:31;;;;;;;27.40;14.50;;;12.30;99.90;;;;;;5028681;28;20500;-70
2023/05/07 02:10:56;;;;;;;26.20;14.43;;;12.40;99.90;;;;;;5012057;28;20025;-70
2023/05/07 02:13:24;;;;;;;27.67;13.23;;;12.40;99.90;;;;;;5011660;28;20480;-71
2023/05/07 02:15:50;;;;;;;27.10;13.63;;;12.30;99.90;;;;;;5011311;28;20045;-71
2023/05/07 02:18:16;;;;;;;22.75;13.35;;;12.30;99.90;;;;;;5011129;28;20090;-73
2023/05/07 02:20:42;;;;;;;21.70;12.05;;;12.30;99.90;;;;;;5011218;28;20212;-71
2023/05/07 02:23:08;;;;;;;20.20;11.98;;;12.30;99.90;;;;;;5011908;28;20029;-70
2023/05/07 02:25:34;;;;;;;19.17;11.65;;;12.30;99.90;;;;;;5010980;28;20034;-71
2023/05/07 02:27:59;;;;;;;19.25;10.85;;;12.30;99.90;;;;;;5011289;28;20034;-71
2023/05/07 02:30:25;;;;;;;19.30;11.70;;;12.30;99.90;;;;;;4993746;28;20482;-70
2023/05/07 02:32:51;;;;;;;20.77;10.93;;;12.30;99.90;;;;;;5011160;28;20034;-72
2023/05/07 02:35:17;;;;;;;18.48;10.00;;;12.30;99.90;;;;;;5011382;28;20114;-70
2023/05/07 02:37:43;;;;;;;16.17;9.52;;;12.20;99.90;;;;;;5011462;28;20046;-71
2023/05/07 02:40:09;;;;;;;17.52;9.20;;;12.30;99.90;;;;;;5011013;28;20525;-70
2023/05/07 02:42:35;;;;;;;15.00;9.40;;;12.30;99.90;;;;;;5010911;28;20022;-70
2023/05/07 02:45:01;;;;;;;17.50;9.85;;;12.30;99.90;;;;;;5010959;28;20048;-71
2023/05/07 02:47:27;;;;;;;15.90;8.90;;;12.30;99.90;;;;;;5011152;28;20021;-70
2023/05/07 02:49:54;;;;;;;15.75;9.48;;;12.30;99.90;;;;;;5011405;28;20037;-71
2023/05/07 02:52:20;;;;;;;13.52;8.00;;;12.30;99.90;;;;;;5010925;28;20368;-71
2023/05/07 02:54:45;;;;;;;14.07;8.68;;;12.30;99.90;;;;;;5011017;28;20038;-71
2023/05/07 02:57:11;;;;;;;13.73;8.95;;;12.30;99.90;;;;;;5010757;28;20038;-71
2023/05/07 02:59:37;;;;;;;14.75;9.15;;;12.30;99.90;;;;;;5013207;28;20026;-71
2023/05/07 03:02:02;;;;;;;16.38;8.55;;;12.20;99.90;;;;;;5015369;28;20036;-71
2023/05/07 03:04:28;;;;;;;16.25;9.65;;;12.20;99.90;;;;;;5014323;28;20044;-70
2023/05/07 03:06:54;;;;;;;14.93;8.68;;;12.20;99.90;;;;;;5014433;28;20050;-70
2023/05/07 03:09:20;;;;;;;15.05;9.48;;;12.30;99.90;;;;;;4997364;28;20028;-70
2023/05/07 03:11:46;;;;;;;15.88;9.07;;;12.20;99.90;;;;;;4996968;28;20037;-71
2023/05/07 03:14:11;;;;;;;14.73;9.18;;;12.20;99.90;;;;;;5014652;28;20025;-70
2023/05/07 03:16:38;;;;;;;15.00;8.95;;;12.20;99.90;;;;;;5034214;28;20060;-71
2023/05/07 03:19:03;;;;;;;15.82;9.35;;;12.30;99.90;;;;;;5034035;28;20096;-70
2023/05/07 03:21:30;;;;;;;16.48;9.43;;;12.10;99.90;;;;;;5034215;28;20033;-71
2023/05/07 03:23:56;;;;;;;17.77;9.30;;;12.20;99.90;;;;;;5033737;28;20071;-69
2023/05/07 03:26:22;;;;;;;15.07;8.85;;;12.30;99.90;;;;;;5033784;28;20057;-70
2023/05/07 03:28:47;;;;;;;15.48;8.38;;;12.30;99.90;;;;;;5016597;28;20021;-70
2023/05/07 03:31:13;;;;;;;19.83;9.32;;;12.30;99.90;;;;;;5033745;28;20114;-71
2023/05/07 03:33:53;;;;;;;16.00;9.57;;;12.30;99.90;;;;;;5033769;28;20029;-70
2023/05/07 03:36:19;;;;;;;16.50;8.70;;;12.20;99.90;;;;;;5033827;28;20076;-71
2023/05/07 03:38:44;;;;;;;13.02;7.57;;;12.20;99.90;;;;;;5033631;28;20442;-70
2023/05/07 03:41:11;;;;;;;13.88;8.63;;;12.20;99.90;;;;;;5034016;28;20033;-71
2023/05/07 03:43:36;;;;;;;14.15;8.38;;;12.30;99.90;;;;;;5033681;28;20021;-71
2023/05/07 03:46:02;;;;;;;12.32;7.80;;;12.10;99.90;;;;;;5033327;28;20045;-72
2023/05/07 03:48:28;;;;;;;17.08;8.55;;;12.10;99.90;;;;;;5015926;28;20092;-71
2023/05/07 03:50:53;;;;;;;14.90;7.45;;;12.10;99.90;;;;;;5033786;28;20040;-72
2023/05/07 03:53:19;;;;;;;13.88;8.20;;;12.00;99.90;;;;;;5033601;28;20021;-71
2023/05/07 03:55:44;;;;;;;13.63;8.07;;;12.00;99.90;;;;;;5033649;28;20448;-71
2023/05/07 03:58:10;;;;;;;13.25;8.13;;;12.10;99.90;;;;;;5033171;28;20361;-70
2023/05/07 04:00:38;;;;;;;18.80;8.35;;;12.00;99.90;;;;;;5033262;28;20036;-72
2023/05/07 04:03:04;;;;;;;13.35;8.35;;;12.00;99.90;;;;;;5015864;28;20044;-71
2023/05/07 04:05:30;;;;;;;15.65;8.55;;;12.00;99.90;;;;;;5033415;28;20079;-72
2023/05/07 04:07:58;;;;;;;14.35;7.28;;;12.00;99.90;;;;;;5033541;28;20026;-71
2023/05/07 04:10:24;;;;;;;11.60;7.55;;;12.00;99.90;;;;;;5033084;28;20058;-70
2023/05/07 04:12:49;;;;;;;13.98;8.65;;;12.00;99.90;;;;;;5032790;28;20467;-71
2023/05/07 04:15:15;;;;;;;12.20;7.65;;;12.00;99.90;;;;;;5032870;28;20476;-70
2023/05/07 04:17:41;;;;;;;14.13;7.43;;;12.00;99.90;;;;;;5032804;28;20379;-70
2023/05/07 04:20:10;;;;;;;14.27;7.20;;;12.10;99.90;;;;;;5015845;28;20466;-71
2023/05/07 04:22:36;;;;;;;13.40;7.97;;;12.10;99.90;;;;;;5015342;28;20045;-71
2023/05/07 04:25:03;;;;;;;13.05;7.75;;;12.10;99.90;;;;;;5032653;28;20321;-72
2023/05/07 04:27:29;;;;;;;13.10;7.72;;;12.10;99.90;;;;;;5032707;28;20106;-70
2023/05/07 04:29:55;;;;;;;12.07;7.63;;;12.10;99.90;;;;;;5032376;28;20045;-71
2023/05/07 04:32:21;;;;;;;12.68;8.43;;;12.10;99.90;;;;;;5015126;28;20094;-72
2023/05/07 04:34:47;;;;;;;12.13;7.47;;;12.00;99.90;;;;;;5033071;28;20024;-70
2023/05/07 04:37:13;;;;;;;14.23;8.60;;;12.00;99.90;;;;;;5032863;28;20455;-71
2023/05/07 04:39:39;;;;;;;14.07;8.18;;;12.00;99.90;;;;;;5032648;28;20092;-72
2023/05/07 04:42:07;;;;;;;15.00;8.80;;;12.10;99.90;;;;;;5015066;28;20031;-71
2023/05/07 04:44:32;;;;;;;;;;;12.00;99.90;;;;;;5033301;28;20024;-71
2023/05/07 04:46:58;;;;;;;12.43;8.30;;;12.00;99.90;;;;;;5032854;28;19905;-72
2023/05/07 04:49:24;;;;;;;13.98;8.48;;;12.00;99.90;;;;;;5032731;28;20400;-73
2023/05/07 04:51:50;;;;;;;14.13;8.23;;;12.00;99.90;;;;;;5014821;28;20034;-71
2023/05/07 04:54:15;;;;;;;12.65;8.50;;;12.00;99.90;;;;;;5032375;28;20057;-71
2023/05/07 04:56:41;;;;;;;11.52;7.50;;;12.00;99.90;;;;;;5032090;28;20108;-71
2023/05/07 04:59:07;;;;;;;15.27;8.50;;;12.00;99.90;;;;;;5032756;28;20022;-70
2023/05/07 05:01:33;;;;;;;14.80;8.15;;;12.00;99.90;;;;;;5014790;28;20076;-71
2023/05/07 05:04:00;;;;;;;13.77;8.15;;;11.90;99.90;;;;;;5032210;28;20256;-72
2023/05/07 05:06:25;;;;;;;14.20;8.38;;;12.00;99.90;;;;;;5032183;28;20451;-70
2023/05/07 05:08:51;;;;;;;14.70;8.77;;;11.90;99.90;;;;;;5032088;28;20033;-72
2023/05/07 05:11:17;;;;;;;12.68;8.32;;;12.00;99.90;;;;;;5031712;28;20017;-70
2023/05/07 05:13:42;;;;;;;14.60;8.25;;;12.10;99.90;;;;;;5014869;28;20116;-71
2023/05/07 05:16:08;;;;;;;12.40;7.35;;;12.10;99.90;;;;;;5031745;28;20030;-71
2023/05/07 05:18:34;;;;;;;13.10;7.50;;;12.00;99.90;;;;;;5031883;28;20464;-72
2023/05/07 05:21:00;;;;;;;13.07;8.40;;;12.10;99.90;;;;;;5030961;28;20366;-70
2023/05/07 05:23:26;;;;;;;14.80;7.72;;;12.00;99.90;;;;;;5014094;28;20272;-70
2023/05/07 05:25:58;;;;;;;11.80;7.68;;;12.00;99.90;;;;;;5032112;28;20418;-72
2023/05/07 05:28:24;;;;;;;11.15;7.47;;;12.10;99.90;;;;;;5014435;28;20459;-71
2023/05/07 05:30:50;;;;;;;12.80;7.28;;;12.10;99.80;;;;;;5031376;28;20060;-71
2023/05/07 05:33:16;;;;;;;13.57;7.28;;;12.00;99.80;;;;;;5031927;28;20412;-71
2023/05/07 05:35:42;;;;;;;12.85;7.65;;;12.10;99.70;;;;;;5031822;28;20033;-70
2023/05/07 05:38:07;;;;;;;15.25;8.50;;;12.00;99.70;;;;;;5032017;28;20017;-70
2023/05/07 05:40:33;;;;;;;17.08;8.07;;;12.00;99.90;;;;;;5031601;28;20113;-71
2023/05/07 05:42:59;;;;;;;11.52;7.90;;;12.00;99.80;;;;;;5031346;28;20030;-71
2023/05/07 05:45:25;;;;;;;15.52;7.97;;;12.00;99.90;;;;;;5031374;28;20040;-71
2023/05/07 05:47:51;;;;;;;11.95;7.90;;;11.90;99.70;;;;;;5031537;28;20026;-71
2023/05/07 05:50:17;;;;;;;14.95;8.20;;;12.00;99.70;;;;;;5031214;28;20028;-70
2023/05/07 05:52:43;;;;;;;11.05;7.22;;;12.00;99.50;;;;;;5031879;28;20021;-71
2023/05/07 05:55:09;;;;;;;11.63;7.47;;;12.00;99.60;;;;;;5031242;28;20044;-70
2023/05/07 05:57:35;;;;;;;8.27;6.28;;;12.00;99.50;;;;;;5031293;28;20506;-71
2023/05/07 06:00:02;;;;;;;10.45;6.80;;;12.10;99.40;;;;;;5031210;28;20124;-71
2023/05/07 06:02:28;;;;;;;8.65;6.57;;;12.10;99.20;;;;;;5030659;28;20527;-71
2023/05/07 06:04:53;;;;;;;9.95;6.72;;;12.00;99.30;;;;;;5016162;28;20057;-70
2023/05/07 06:07:19;;;;;;;10.88;7.70;;;12.10;99.30;;;;;;5031236;28;20120;-71
2023/05/07 06:09:45;;;;;;;9.98;6.78;;;12.10;99.20;;;;;;5030963;28;20057;-70
2023/05/07 06:12:11;;;;;;;10.15;7.03;;;12.00;99.10;;;;;;5030897;28;20464;-70
2023/05/07 06:14:37;;;;;;;10.70;6.93;;;12.10;99.20;;;;;;5031266;28;20037;-70
2023/05/07 06:17:03;;;;;;;12.10;6.63;;;12.10;99.10;;;;;;5031177;28;20539;-71
2023/05/07 06:19:28;;;;;;;11.90;6.97;;;12.10;99.00;;;;;;5030634;28;20456;-71
2023/05/07 06:21:56;;;;;;;12.18;7.18;;;12.10;99.20;;;;;;5030870;28;20084;-72
2023/05/07 06:24:22;;;;;;;10.50;6.13;;;12.10;99.10;;;;;;5030991;28;20021;-71
2023/05/07 06:26:47;;;;;;;9.13;6.40;;;12.20;99.10;;;;;;5030921;28;20080;-72
2023/05/07 06:29:13;;;;;;;9.40;6.10;;;12.20;99.10;;;;;;5030968;28;20025;-71
2023/05/07 06:31:39;;;;;;;10.52;6.95;;;12.20;99.10;;;;;;5030016;28;20029;-69
2023/05/07 06:34:05;;;;;;;11.50;6.93;;;12.30;99.00;;;;;;5014042;28;20030;-72
2023/05/07 06:36:30;;;;;;;8.65;6.13;;;12.30;99.10;;;;;;5033486;28;20037;-72
2023/05/07 06:38:56;;;;;;;12.60;6.22;;;12.30;99.10;;;;;;5033367;28;20037;-74
2023/05/07 06:41:21;;;;;;;8.07;5.88;;;12.50;98.90;;;;;;5033864;28;20036;-74
2023/05/07 06:43:47;;;;;;;8.82;6.22;;;12.50;98.70;;;;;;5016744;28;20044;-73
2023/05/07 06:46:13;;;;;;;9.13;6.47;;;12.50;98.60;;;;;;5033337;28;20120;-71
2023/05/07 06:48:38;;;;;;;11.20;6.65;;;12.50;98.60;;;;;;5033144;28;20447;-73
2023/05/07 06:51:04;;;;;;;9.80;7.32;;;12.60;98.50;;;;;;5033409;28;20563;-73
2023/05/07 06:53:30;;;;;;;10.25;6.65;;;12.60;98.30;;;;;;5033334;28;20096;-74
2023/05/07 06:55:56;;;;;;;10.20;7.00;;;12.60;98.20;;;;;;5033540;28;20056;-75
2023/05/07 06:58:22;;;;;;;9.95;7.72;;;12.60;98.30;;;;;;5033371;28;20032;-75
2023/05/07 07:00:48;;;;;;;13.15;7.65;;;12.60;98.20;;;;;;5032967;28;20030;-74
2023/05/07 07:03:14;;;;;;;10.90;7.47;;;12.60;98.40;;;;;;5032963;28;20034;-74
2023/05/07 07:05:42;;;;;;;13.80;8.23;;;12.60;98.40;;;;;;5033461;28;20057;-74
2023/05/07 07:08:09;;;;;;;8.65;6.47;;;12.70;98.40;;;;;;5033573;28;20048;-74
2023/05/07 07:10:35;;;;;;;11.63;8.07;;;12.80;98.40;;;;;;5015593;28;20031;-76
2023/05/07 07:13:01;;;;;;;12.02;8.38;;;12.80;98.40;;;;;;5015454;28;20047;-76
2023/05/07 07:15:27;;;;;;;12.60;7.68;;;12.80;98.30;;;;;;5011764;28;20033;-79
2023/05/07 07:17:52;;;;;;;11.10;8.43;;;12.70;98.30;;;;;;5034142;28;20025;-76
2023/05/07 07:20:18;;;;;;;11.25;8.40;;;12.70;98.30;;;;;;5033737;28;20033;-77
2023/05/07 07:22:44;;;;;;;12.85;9.07;;;12.90;98.20;;;;;;5034149;28;20035;-76
2023/05/07 07:25:11;;;;;;;12.20;9.27;;;13.00;98.20;;;;;;5033807;28;20033;-74
2023/05/07 07:27:37;;;;;;;13.45;9.35;;;13.10;98.10;;;;;;5033542;28;20453;-75
2023/05/07 07:30:03;;;;;;;12.50;8.57;;;13.10;98.20;;;;;;4993687;28;1147409;-74
2023/05/07 07:32:29;;;;;;;13.65;9.40;;;13.10;97.60;;;;;;5034883;28;20391;-71
2023/05/07 07:34:54;;;;;;;15.90;8.45;;;13.20;97.60;;;;;;5035321;28;20377;-70
2023/05/07 07:37:20;;;;;;;14.88;9.38;;;13.20;97.50;;;;;;5034762;28;20064;-71
2023/05/07 07:39:46;;;;;;;13.82;9.85;;;13.30;97.40;;;;;;5035053;28;20041;-73
2023/05/07 07:42:11;;;;;;;16.45;9.45;;;13.20;97.40;;;;;;5034465;28;20083;-72
2023/05/07 07:44:39;;;;;;;14.60;9.77;;;13.30;97.40;;;;;;5033631;28;20531;-71
2023/05/07 07:47:05;;;;;;;12.45;8.45;;;13.40;97.20;;;;;;5035324;28;20352;-73
2023/05/07 07:49:31;;;;;;;13.00;9.18;;;13.40;97.20;;;;;;5034691;28;20047;-73
2023/05/07 07:51:59;;;;;;;13.23;8.00;;;13.30;97.00;;;;;;5034469;28;20113;-73
2023/05/07 07:54:25;;;;;;;14.30;7.45;;;13.50;97.30;;;;;;5034579;28;20167;-75
2023/05/07 07:56:51;;;;;;;14.27;8.18;;;13.50;97.10;;;;;;5034416;28;20068;-74
2023/05/07 07:59:18;;;;;;;11.30;7.93;;;13.60;97.00;;;;;;5033931;28;20501;-73
2023/05/07 08:01:44;;;;;;;9.70;7.65;;;13.70;97.00;;;;;;5034194;28;20018;-73
2023/05/07 08:04:10;;;;;;;11.18;8.13;;;13.70;96.80;;;;;;5033322;28;20095;-75
2023/05/07 08:06:37;;;;;;;10.73;7.25;;;13.80;96.70;;;;;;5033370;28;20029;-69
2023/05/07 08:09:03;;;;;;;10.02;6.93;;;13.90;96.50;;;;;;5033129;28;20216;-70
2023/05/07 08:11:29;;;;;;;11.40;7.95;;;13.90;96.50;;;;;;5032822;28;20045;-70
2023/05/07 08:13:56;;;;;;;10.55;7.13;;;14.00;96.60;;;;;;5033498;28;20436;-74
2023/05/07 08:16:22;;;;;;;11.23;7.88;;;14.10;96.30;;;;;;5016504;28;20029;-71
2023/05/07 08:18:47;;;;;;;10.38;6.40;;;14.20;96.20;;;;;;5016159;28;20076;-72
2023/05/07 08:21:13;;;;;;;9.00;6.82;;;14.30;96.20;;;;;;5033524;28;20036;-73
2023/05/07 08:23:39;;;;;;;9.95;6.53;;;14.40;95.90;;;;;;5033116;28;20026;-74
2023/05/07 08:26:05;;;;;;;8.40;6.68;;;14.30;95.80;;;;;;5016517;28;20026;-75
2023/05/07 08:28:30;;;;;;;11.65;6.75;;;14.40;95.80;;;;;;5032834;28;20445;-72
2023/05/07 08:30:59;;;;;;;12.20;7.47;;;14.30;95.80;;;;;;5032794;28;20132;-71
2023/05/07 08:33:25;;;;;;;8.32;6.20;;;14.20;95.80;;;;;;5032728;28;20037;-73
2023/05/07 08:35:50;;;;;;;10.20;6.80;;;14.30;95.90;;;;;;5033148;28;20140;-73
2023/05/07 08:38:16;;;;;;;8.95;6.70;;;14.20;95.90;;;;;;5015346;28;20018;-74
2023/05/07 08:40:42;;;;;;;17.80;7.00;;;14.10;96.10;;;;;;5033136;28;20033;-72
2023/05/07 08:43:07;;;;;;;12.07;7.05;;;14.10;96.20;;;;;;5032543;28;20472;-72
2023/05/07 08:45:34;;;;;;;8.98;6.40;;;14.10;96.50;;;;;;5032490;28;20030;-71
2023/05/07 08:48:03;;;;;;;10.60;6.93;;;14.20;96.30;;;;;;5032385;28;20025;-72
2023/05/07 08:50:29;;;;;;;8.50;6.50;;;14.20;96.00;;;;;;5032180;28;20105;-72
2023/05/07 08:52:56;;;;;;;11.02;6.68;;;14.10;96.00;;;;;;5032843;28;20057;-73
2023/05/07 08:55:22;;;;;;;10.60;7.15;;;14.00;96.30;;;;;;5032431;28;20094;-72
2023/05/07 08:57:48;;;;;;;10.60;7.25;;;13.90;96.40;;;;;;5031141;28;20475;-72
2023/05/07 09:00:14;;;;;;;10.23;6.57;;;14.10;96.40;;;;;;5032223;28;20049;-73
2023/05/07 09:02:40;;;;;;;8.75;6.22;;;14.10;96.30;;;;;;5031974;28;20509;-73
2023/05/07 09:05:06;;;;;;;8.52;6.32;;;14.20;96.20;;;;;;5032762;28;20124;-73
2023/05/07 09:07:32;;;;;;;11.40;7.38;;;14.20;96.40;;;;;;5032692;28;20030;-72
2023/05/07 09:09:59;;;;;;;9.75;7.45;;;14.30;96.30;;;;;;5014630;28;20121;-74
2023/05/07 09:12:24;;;;;;;11.27;7.50;;;14.30;96.50;;;;;;5032058;28;20176;-72
2023/05/07 09:14:50;;;;;;;10.43;7.00;;;14.30;96.10;;;;;;5032176;28;20033;-71
2023/05/07 09:17:16;;;;;;;12.10;7.68;;;14.40;96.30;;;;;;5031779;28;20029;-74
2023/05/07 09:19:44;;;;;;;10.43;7.43;;;14.50;96.10;;;;;;5032432;28;20056;-75
2023/05/07 09:22:10;;;;;;;10.73;7.35;;;14.40;96.20;;;;;;5031861;28;20087;-75
2023/05/07 09:24:37;;;;;;;15.15;7.68;;;14.50;96.30;;;;;;5014134;28;20029;-73
2023/05/07 09:27:08;;;;;;;12.50;7.55;;;14.50;95.90;;;;;;5031891;28;20049;-72
2023/05/07 09:29:35;;;;;;;11.23;7.50;;;14.50;96.00;;;;;;5031731;28;20470;-74
2023/05/07 09:32:05;;;;;;;11.50;7.90;;;14.50;96.30;;;;;;5014562;28;20083;-70
2023/05/07 09:34:31;;;;;;;12.07;7.78;;;14.50;96.10;;;;;;5031659;28;20040;-74
2023/05/07 09:37:04;;;;;;;11.57;7.00;;;14.40;95.90;;;;;;5031535;28;20030;-73
2023/05/07 09:39:47;;;;;;;11.15;7.28;;;14.50;96.00;;;;;;5031485;28;20470;-71
2023/05/07 09:42:14;;;;;;;11.48;6.80;;;14.40;95.80;;;;;;5031454;28;20116;-70
2023/05/07 09:44:40;;;;;;;13.18;7.78;;;14.50;95.90;;;;;;5013984;28;20057;-71
2023/05/07 09:47:07;;;;;;;9.52;6.70;;;14.60;95.80;;;;;;5014315;28;20139;-71
2023/05/07 09:49:38;;;;;;;10.57;6.72;;;14.50;95.70;;;;;;5031146;28;20476;-72
2023/05/07 09:52:08;;;;;;;12.02;7.82;;;14.50;95.90;;;;;;5031431;28;20092;-73
2023/05/07 09:54:37;;;;;;;9.82;6.90;;;14.40;95.80;;;;;;5013683;28;20037;-71
2023/05/07 09:57:04;;;;;;;11.20;7.93;;;14.40;95.80;;;;;;5013535;28;20410;-72
2023/05/07 09:59:32;;;;;;;10.82;7.03;;;14.50;95.80;;;;;;5030975;28;20105;-73
2023/05/07 10:02:01;;;;;;;12.90;7.55;;;14.40;95.70;;;;;;5031643;28;20438;-70
2023/05/07 10:04:27;;;;;;;10.70;7.50;;;14.40;95.80;;;;;;5031059;28;20061;-71
2023/05/07 10:06:55;;;;;;;12.40;8.27;;;14.50;95.70;;;;;;5030956;28;20033;-71
2023/05/07 10:09:21;;;;;;;11.27;7.72;;;14.50;95.60;;;;;;5031187;28;20115;-72
2023/05/07 10:11:49;;;;;;;10.65;7.93;;;14.50;95.60;;;;;;5031151;28;20355;-71
2023/05/07 10:14:15;;;;;;;;;;;14.50;95.60;;;;;;5014203;28;20051;-76
2023/05/07 10:16:41;;;;;;;10.43;7.43;;;14.60;95.70;;;;;;5031724;28;20322;-71
2023/05/07 10:19:11;;;;;;;10.88;7.25;;;14.50;95.60;;;;;;5031040;28;20033;-71
2023/05/07 10:21:38;;;;;;;11.45;7.95;;;14.60;95.70;;;;;;5031018;28;20034;-73
2023/05/07 10:24:13;;;;;;;14.27;7.55;;;14.70;95.70;;;;;;5030686;28;20029;-71
2023/05/07 10:26:46;;;;;;;11.90;7.13;;;14.80;95.60;;;;;;5030713;28;20036;-72
2023/05/07 10:29:21;;;;;;;12.60;8.73;;;14.80;95.50;;;;;;5030870;28;20495;-75
2023/05/07 10:32:05;;;;;;;10.98;8.15;;;14.60;95.40;;;;;;5030768;28;20052;-70
2023/05/07 10:34:41;;;;;;;13.00;8.10;;;14.60;95.40;;;;;;5031161;28;20033;-72
2023/05/07 10:37:09;;;;;;;9.98;7.75;;;14.70;95.30;;;;;;5030904;28;20030;-72
2023/05/07 10:39:34;;;;;;;11.38;7.28;;;14.70;95.20;;;;;;5030808;28;20033;-71
2023/05/07 10:42:11;;;;;;;10.35;7.40;;;14.70;95.20;;;;;;5013472;28;20033;-74
2023/05/07 10:44:37;;;;;;;11.35;7.30;;;14.60;95.30;;;;;;5013202;28;20356;-78
2023/05/07 10:47:11;;;;;;;9.32;7.53;;;14.50;95.50;;;;;;5032097;28;20091;-74
2023/05/07 10:49:45;;;;;;;9.13;6.20;;;14.60;95.30;;;;;;5012800;28;20030;-73
2023/05/07 10:52:16;;;;;;;8.95;6.70;;;14.60;95.40;;;;;;5030502;28;20370;-73
2023/05/07 10:54:44;;;;;;;8.00;6.13;;;14.70;95.30;;;;;;5030591;28;20030;-72
2023/05/07 10:57:36;;;;;;;9.65;6.93;;;14.60;95.30;;;;;;5030566;28;20037;-70
2023/05/07 11:00:25;;;;;;;7.82;5.72;;;14.70;95.30;;;;;;5018348;28;20402;-73
2023/05/07 11:03:00;;;;;;;8.95;6.45;;;14.90;95.00;;;;;;5015294;28;20099;-74
2023/05/07 11:05:30;;;;;;;9.63;6.03;;;15.00;95.10;;;;;;5030937;28;20029;-72
2023/05/07 11:07:57;;;;;;;8.13;5.93;;;15.10;94.90;;;;;;5031269;28;20017;-71
2023/05/07 11:10:23;;;;;;;11.60;6.47;;;15.20;94.70;;;;;;5030522;28;20348;-75
2023/05/07 11:12:50;;;;;;;9.18;6.43;;;15.40;94.40;;;;;;5012881;28;20255;-70
2023/05/07 11:15:41;;;;;;;8.93;5.97;;;15.50;94.50;;;;;;5030357;28;20423;-73
2023/05/07 11:18:07;;;;;;;10.85;6.00;;;15.50;94.30;;;;;;5030284;28;20467;-73
2023/05/07 11:20:50;;;;;;;9.30;6.22;;;15.70;94.20;;;;;;5015172;28;20040;-71
2023/05/07 11:23:34;;;;;;;9.80;5.90;;;15.70;94.10;;;;;;5034062;28;20087;-71
2023/05/07 11:26:07;;;;;;;9.60;5.82;;;15.70;93.90;;;;;;5034411;28;20022;-75
2023/05/07 11:28:41;;;;;;;7.43;5.30;;;15.70;94.00;;;;;;5016474;28;20088;-72
2023/05/07 11:31:08;;;;;;;9.82;6.25;;;15.90;93.80;;;;;;5016220;28;20544;-71
2023/05/07 11:33:34;;;;;;;8.27;5.75;;;15.90;93.70;;;;;;5033989;28;20038;-76
2023/05/07 11:36:02;;;;;;;8.70;5.53;;;16.00;93.80;;;;;;5033547;28;20095;-71
2023/05/07 11:38:29;;;;;;;6.40;4.82;;;16.10;93.40;;;;;;5033410;28;20363;-73
2023/05/07 11:40:57;;;;;;;7.60;5.60;;;16.10;93.20;;;;;;5034107;28;20018;-73
2023/05/07 11:43:22;;;;;;;6.55;5.35;;;16.00;93.20;;;;;;5033779;28;20126;-72
2023/05/07 11:45:49;;;;;;;8.57;6.15;;;16.30;93.20;;;;;;5016164;28;20112;-75
2023/05/07 11:48:16;;;;;;;6.68;5.15;;;16.20;93.20;;;;;;5033617;28;20053;-72
2023/05/07 11:50:52;;;;;;;6.93;5.38;;;16.30;93.20;;;;;;5033594;28;20029;-71
2023/05/07 11:53:18;;;;;;;7.13;5.28;;;16.30;92.90;;;;;;5016002;28;20204;-73
2023/05/07 11:55:44;;;;;;;6.22;4.82;;;16.40;93.00;;;;;;5033930;28;20021;-75
2023/05/07 11:58:12;;;;;;;7.05;5.63;;;16.40;92.90;;;;;;5033328;28;20022;-71
2023/05/07 12:00:37;;;;;;;8.73;4.53;;;16.50;93.00;;;;;;5033288;28;20412;-73
2023/05/07 12:03:04;;;;;;;5.90;4.68;;;16.50;92.70;;;;;;5033149;28;20053;-71
2023/05/07 12:05:30;;;;;;;6.53;4.55;;;16.40;92.90;;;;;;5015681;28;20076;-73
2023/05/07 12:07:57;;;;;;;6.47;5.03;;;16.40;92.90;;;;;;5033544;28;20033;-72
2023/05/07 12:10:24;;;;;;;7.22;4.90;;;16.60;92.80;;;;;;5033208;28;20177;-73
2023/05/07 12:12:50;;;;;;;5.55;4.45;;;16.70;92.70;;;;;;5032993;28;20033;-75
2023/05/07 12:15:17;;;;;;;8.80;4.55;;;16.50;92.70;;;;;;5015904;28;20033;-71
2023/05/07 12:17:43;;;;;;;6.63;4.68;;;16.60;92.40;;;;;;5015950;28;20299;-74
2023/05/07 12:20:10;;;;;;;6.80;4.90;;;16.70;92.30;;;;;;5016340;28;20068;-73
2023/05/07 12:22:36;;;;;;;6.38;4.90;;;16.70;92.40;;;;;;5033255;28;20083;-73
2023/05/07 12:25:02;;;;;;;6.05;4.50;;;16.70;92.50;;;;;;5032867;28;20053;-70
2023/05/07 12:27:28;;;;;;;5.63;4.35;;;16.70;92.40;;;;;;5033045;28;20475;-72
2023/05/07 12:29:54;;;;;;;5.53;4.43;;;16.80;92.30;;;;;;5033214;28;20107;-71
2023/05/07 12:32:21;;;;;;;5.97;4.35;;;16.50;92.10;;;;;;5031798;28;20037;-74
2023/05/07 12:34:50;;;;;;;5.47;3.95;;;16.50;92.50;;;;;;5033778;28;20188;-72
2023/05/07 12:37:16;;;;;;;5.15;4.20;;;16.40;92.30;;;;;;5032951;28;20553;-71